Time;durP1;ratioP1;P1;durP2;ratioP2;P2;SDS_P1;SDS_P2;PMS_P1;PMS_P2;Temp;Humidity;BMP_temperature;BMP_pressure;BME280_temperature;BME280_humidity;BME280_pressure;Samples;Min_cycle;Max_cycle;Signal;HPM_P1;HPM_P2
2023/08/24 00:01:12;;;;;;;16.73;8.13;;;31.40;56.10;;;;;;7398885;19;20252;-71
2023/08/24 00:03:38;;;;;;;16.70;8.35;;;31.40;57.10;;;;;;7399239;19;19922;-71
2023/08/24 00:06:05;;;;;;;15.00;9.73;;;31.40;56.90;;;;;;7397676;19;19935;-72
2023/08/24 00:08:32;;;;;;;15.38;8.38;;;31.50;57.50;;;;;;7400180;19;20348;-72
2023/08/24 00:10:58;;;;;;;13.77;9.05;;;31.50;57.20;;;;;;7400025;19;19914;-72
2023/08/24 00:13:24;;;;;;;;;;;31.40;57.10;;;;;;7401261;19;19919;-72
2023/08/24 00:15:50;;;;;;;14.90;8.50;;;31.30;57.50;;;;;;7399357;19;19935;-72
2023/08/24 00:18:18;;;;;;;13.02;8.73;;;31.30;58.40;;;;;;7401106;19;19920;-72
2023/08/24 00:20:44;;;;;;;14.82;8.95;;;31.40;58.10;;;;;;7402729;19;19919;-72
2023/08/24 00:23:09;;;;;;;11.95;8.48;;;31.40;58.50;;;;;;7368802;19;20398;-72
2023/08/24 00:25:35;;;;;;;15.07;8.40;;;31.40;58.60;;;;;;7400473;19;19941;-72
2023/08/24 00:28:01;;;;;;;;;;;31.40;58.70;;;;;;7405656;19;20339;-71
2023/08/24 00:30:27;;;;;;;12.23;8.35;;;31.40;58.50;;;;;;7401539;19;19955;-72
2023/08/24 00:32:52;;;;;;;;;;;31.30;58.60;;;;;;7406738;19;19938;-72
2023/08/24 00:35:18;;;;;;;13.43;8.57;;;31.30;58.80;;;;;;7400435;19;19930;-72
2023/08/24 00:37:44;;;;;;;15.10;8.52;;;31.30;58.90;;;;;;7401992;19;19948;-73
2023/08/24 00:40:10;;;;;;;11.73;7.18;;;31.20;59.20;;;;;;7401344;19;19924;-72
2023/08/24 00:42:40;;;;;;;12.70;8.25;;;31.10;59.90;;;;;;7399474;19;19986;-72
2023/08/24 00:45:09;;;;;;;12.73;7.82;;;31.20;60.40;;;;;;7399837;19;20826;-71
2023/08/24 00:47:36;;;;;;;10.98;7.88;;;31.10;60.50;;;;;;7401096;19;19921;-72
2023/08/24 00:50:03;;;;;;;11.13;8.75;;;31.10;59.90;;;;;;7399011;19;19918;-72
2023/08/24 00:52:31;;;;;;;10.38;7.50;;;31.10;59.30;;;;;;7400818;19;20334;-72
2023/08/24 00:54:58;;;;;;;14.75;8.25;;;31.10;58.70;;;;;;7400352;19;19982;-72
2023/08/24 00:57:25;;;;;;;11.07;7.38;;;31.00;58.80;;;;;;7398740;19;19937;-72
2023/08/24 00:59:50;;;;;;;11.23;6.20;;;30.90;58.40;;;;;;7402208;19;20272;-72
2023/08/24 01:02:16;;;;;;;11.70;6.80;;;31.00;57.30;;;;;;7397683;19;19946;-73
2023/08/24 01:04:44;;;;;;;10.77;6.57;;;31.00;56.50;;;;;;7401096;19;19906;-73
2023/08/24 01:07:11;;;;;;;11.05;6.82;;;31.00;55.80;;;;;;7400513;19;19928;-73
2023/08/24 01:09:36;;;;;;;11.80;7.68;;;31.00;56.40;;;;;;7398887;19;20647;-72
2023/08/24 01:12:18;;;;;;;8.68;6.43;;;31.00;55.80;;;;;;7395543;19;19921;-73
2023/08/24 01:15:09;;;;;;;9.90;6.55;;;30.90;56.00;;;;;;7400227;19;19926;-72
2023/08/24 01:17:37;;;;;;;11.98;6.50;;;30.90;56.00;;;;;;7378972;19;20489;-72
2023/08/24 01:20:05;;;;;;;11.93;7.10;;;31.00;55.40;;;;;;7397206;19;19922;-70
2023/08/24 01:22:37;;;;;;;11.77;6.75;;;30.90;54.80;;;;;;7397520;19;19929;-73
2023/08/24 01:25:32;;;;;;;8.07;6.00;;;30.90;54.50;;;;;;7398104;19;19981;-72
2023/08/24 01:27:59;;;;;;;11.57;6.43;;;30.90;54.60;;;;;;7397757;19;19918;-73
2023/08/24 01:30:26;;;;;;;11.43;6.68;;;30.80;55.10;;;;;;7398107;19;20852;-71
2023/08/24 01:32:52;;;;;;;9.07;6.85;;;30.70;54.50;;;;;;7401422;19;19930;-72
2023/08/24 01:35:17;;;;;;;11.77;7.32;;;30.60;54.80;;;;;;7398155;19;19922;-72
2023/08/24 01:37:43;;;;;;;12.35;5.85;;;30.60;54.90;;;;;;7399897;19;19923;-72
2023/08/24 01:40:17;;;;;;;10.82;6.68;;;30.60;55.10;;;;;;7399345;19;19914;-72
2023/08/24 01:42:55;;;;;;;8.75;6.57;;;30.50;55.30;;;;;;7400429;19;19933;-72
2023/08/24 01:45:24;;;;;;;10.48;7.18;;;30.40;55.50;;;;;;7394355;19;20007;-72
2023/08/24 01:47:52;;;;;;;13.82;7.72;;;30.30;55.70;;;;;;7399359;19;19919;-72
2023/08/24 01:50:19;;;;;;;12.75;6.88;;;30.30;56.10;;;;;;7396497;19;19915;-72
2023/08/24 01:52:44;;;;;;;11.07;8.00;;;30.20;56.40;;;;;;7398405;19;19915;-71
2023/08/24 01:55:11;;;;;;;14.63;7.22;;;30.20;56.80;;;;;;7398082;19;19922;-72
2023/08/24 01:57:37;;;;;;;9.52;6.80;;;30.20;57.20;;;;;;7398118;19;20007;-72
2023/08/24 02:00:09;;;;;;;11.80;8.10;;;30.20;57.90;;;;;;7397153;19;20339;-71
2023/08/24 02:02:35;;;;;;;13.38;6.40;;;30.20;58.10;;;;;;7398405;19;19914;-73
2023/08/24 02:05:01;;;;;;;;;;;30.10;58.20;;;;;;7398460;19;19915;-72
2023/08/24 02:07:27;;;;;;;14.60;8.55;;;30.10;58.50;;;;;;7390344;19;19911;-72
2023/08/24 02:09:53;;;;;;;9.98;6.03;;;30.10;58.80;;;;;;7397879;19;19937;-72
2023/08/24 02:12:19;;;;;;;12.23;6.13;;;30.10;59.10;;;;;;7397235;19;19914;-71
2023/08/24 02:14:44;;;;;;;11.98;7.78;;;30.00;59.40;;;;;;7402131;19;20023;-73
2023/08/24 02:17:10;;;;;;;12.07;7.43;;;30.00;59.60;;;;;;7402961;19;19949;-71
2023/08/24 02:19:36;;;;;;;10.07;7.22;;;30.00;60.20;;;;;;7403057;19;19930;-72
2023/08/24 02:22:02;;;;;;;12.07;8.20;;;30.10;60.30;;;;;;7404427;19;19999;-71
2023/08/24 02:24:27;;;;;;;13.00;7.35;;;30.10;60.80;;;;;;7400670;19;19936;-72
2023/08/24 02:26:53;;;;;;;11.80;7.80;;;30.00;61.10;;;;;;7403997;19;19923;-72
2023/08/24 02:29:19;;;;;;;11.40;7.25;;;30.00;61.40;;;;;;7402446;19;19986;-73
2023/08/24 02:31:45;;;;;;;10.20;7.63;;;30.00;61.80;;;;;;7403854;19;19938;-73
2023/08/24 02:34:11;;;;;;;10.75;6.47;;;29.90;62.00;;;;;;7400829;19;19915;-72
2023/08/24 02:36:36;;;;;;;13.95;7.43;;;30.00;62.00;;;;;;7403455;19;19923;-73
2023/08/24 02:39:02;;;;;;;11.98;7.57;;;29.90;62.00;;;;;;7379513;19;19926;-72
2023/08/24 02:41:28;;;;;;;13.20;7.65;;;30.00;62.40;;;;;;7403299;19;20002;-71
2023/08/24 02:43:54;;;;;;;13.38;6.47;;;29.90;62.00;;;;;;7402774;19;20283;-72
2023/08/24 02:46:21;;;;;;;11.93;7.82;;;29.90;61.80;;;;;;7402227;19;19918;-72
2023/08/24 02:48:47;;;;;;;13.02;6.88;;;29.90;61.70;;;;;;7401877;19;19906;-73
2023/08/24 02:51:13;;;;;;;10.32;6.07;;;29.80;61.30;;;;;;7403435;19;19933;-73
2023/08/24 02:53:39;;;;;;;8.57;5.60;;;29.70;61.00;;;;;;7402194;19;19950;-72
2023/08/24 02:56:05;;;;;;;9.73;6.75;;;29.70;61.20;;;;;;7402237;19;19906;-71
2023/08/24 02:58:31;;;;;;;11.02;6.10;;;29.60;61.40;;;;;;7403726;19;19923;-72
2023/08/24 03:00:57;;;;;;;11.00;5.97;;;29.60;61.60;;;;;;7403579;19;20019;-72
2023/08/24 03:03:24;;;;;;;9.43;6.07;;;29.60;61.50;;;;;;7400336;19;19939;-72
2023/08/24 03:06:01;;;;;;;9.23;7.07;;;29.60;61.50;;;;;;7403553;19;19922;-72
2023/08/24 03:08:27;;;;;;;10.63;6.38;;;29.50;61.60;;;;;;7390929;19;19921;-72
2023/08/24 03:10:53;;;;;;;9.40;6.85;;;29.50;61.70;;;;;;7402789;19;19914;-72
2023/08/24 03:13:19;;;;;;;14.40;6.28;;;29.50;61.80;;;;;;7400309;19;19969;-73
2023/08/24 03:15:45;;;;;;;11.90;6.18;;;29.50;61.90;;;;;;7401763;19;19918;-72
2023/08/24 03:18:15;;;;;;;9.88;6.78;;;29.50;62.00;;;;;;7398630;19;20398;-73
2023/08/24 03:20:41;;;;;;;11.88;5.88;;;29.50;62.20;;;;;;7402091;19;19978;-74
2023/08/24 03:23:07;;;;;;;11.85;7.38;;;29.50;62.40;;;;;;7399997;19;19922;-72
2023/08/24 03:25:38;;;;;;;11.63;7.22;;;29.50;62.60;;;;;;7398900;19;19915;-72
2023/08/24 03:28:04;;;;;;;12.23;6.32;;;29.50;62.80;;;;;;7400957;19;20549;-71
2023/08/24 03:30:31;;;;;;;11.60;7.38;;;29.50;62.90;;;;;;7402407;19;19915;-71
2023/08/24 03:32:59;;;;;;;11.90;7.22;;;29.50;63.00;;;;;;7402935;19;19919;-72
2023/08/24 03:35:25;;;;;;;14.63;6.53;;;29.50;63.30;;;;;;7379985;19;19986;-72
2023/08/24 03:37:51;;;;;;;11.52;7.88;;;29.50;63.60;;;;;;7402121;19;19932;-72
2023/08/24 03:40:17;;;;;;;10.20;7.40;;;29.50;63.80;;;;;;7400036;19;19919;-72
2023/08/24 03:42:43;;;;;;;10.07;7.72;;;29.50;64.10;;;;;;7401356;19;20181;-71
2023/08/24 03:45:09;;;;;;;11.35;7.53;;;29.40;64.30;;;;;;7399181;19;19939;-72
2023/08/24 03:47:35;;;;;;;;;;;29.30;65.10;;;;;;7404780;19;19974;-71
2023/08/24 03:50:00;;;;;;;11.95;7.15;;;29.30;65.60;;;;;;7402360;19;19951;-71
2023/08/24 03:52:27;;;;;;;13.75;8.30;;;29.20;66.10;;;;;;7400576;19;19937;-72
2023/08/24 03:54:52;;;;;;;13.10;6.78;;;29.20;66.60;;;;;;7399458;19;20417;-72
2023/08/24 03:57:18;;;;;;;12.70;7.28;;;29.20;67.70;;;;;;7397860;19;19934;-72
2023/08/24 03:59:44;;;;;;;10.40;6.45;;;29.20;68.20;;;;;;7402596;19;20398;-72
2023/08/24 04:02:10;;;;;;;11.70;6.93;;;29.20;68.80;;;;;;7399324;19;19915;-72
2023/08/24 04:04:35;;;;;;;12.15;6.35;;;29.20;68.80;;;;;;7402410;19;19914;-72
2023/08/24 04:07:02;;;;;;;11.18;6.50;;;29.20;68.20;;;;;;7401928;19;19918;-73
2023/08/24 04:09:28;;;;;;;12.25;6.68;;;29.20;67.40;;;;;;7400974;19;19911;-73
2023/08/24 04:11:54;;;;;;;;;;;29.10;67.60;;;;;;7402430;19;19942;-73
2023/08/24 04:14:20;;;;;;;10.55;6.45;;;29.10;67.70;;;;;;7400940;19;19915;-72
2023/08/24 04:16:47;;;;;;;11.95;8.32;;;29.10;67.60;;;;;;7399735;19;19918;-71
2023/08/24 04:19:13;;;;;;;12.85;7.75;;;29.10;67.00;;;;;;7369796;19;19978;-72
2023/08/24 04:21:39;;;;;;;11.60;8.45;;;29.10;67.00;;;;;;7400523;19;19961;-73
2023/08/24 04:24:04;;;;;;;15.52;8.15;;;29.10;67.10;;;;;;7400899;19;19922;-72
2023/08/24 04:26:31;;;;;;;12.23;8.05;;;29.10;67.00;;;;;;7399736;19;19962;-73
2023/08/24 04:28:56;;;;;;;;;;;29.00;67.20;;;;;;7401927;19;19918;-72
2023/08/24 04:31:22;;;;;;;12.02;7.43;;;29.00;67.10;;;;;;7398813;19;19934;-72
2023/08/24 04:33:48;;;;;;;11.35;7.45;;;29.00;67.50;;;;;;7401338;19;19930;-73
2023/08/24 04:36:14;;;;;;;12.10;8.30;;;29.00;67.80;;;;;;7398578;19;20335;-72
2023/08/24 04:38:39;;;;;;;11.40;7.07;;;29.00;68.30;;;;;;7398322;19;20755;-73
2023/08/24 04:41:08;;;;;;;11.02;7.00;;;29.00;68.40;;;;;;7399559;19;19922;-72
2023/08/24 04:43:36;;;;;;;12.05;7.30;;;28.90;68.10;;;;;;7370822;19;19926;-72
2023/08/24 04:46:02;;;;;;;10.20;7.13;;;29.00;67.90;;;;;;7398584;19;19914;-72
2023/08/24 04:48:32;;;;;;;9.70;6.80;;;29.00;67.90;;;;;;7398310;19;19926;-71
2023/08/24 04:50:59;;;;;;;12.77;6.68;;;29.00;67.70;;;;;;7398344;19;19922;-72
2023/08/24 04:53:25;;;;;;;13.50;6.80;;;28.90;67.60;;;;;;7398565;19;19918;-71
2023/08/24 04:55:51;;;;;;;12.23;6.55;;;29.00;67.40;;;;;;7401902;19;20232;-72
2023/08/24 04:58:17;;;;;;;12.05;8.68;;;29.00;67.60;;;;;;7397425;19;19941;-72
2023/08/24 05:00:43;;;;;;;13.77;6.65;;;29.00;68.50;;;;;;7399368;19;20467;-72
2023/08/24 05:03:10;;;;;;;14.15;8.60;;;29.00;69.20;;;;;;7397101;19;19984;-72
2023/08/24 05:05:36;;;;;;;10.95;6.28;;;29.00;70.30;;;;;;7398698;19;20291;-71
2023/08/24 05:08:06;;;;;;;11.90;6.75;;;29.00;70.80;;;;;;7397051;19;20360;-73
2023/08/24 05:10:33;;;;;;;12.88;7.88;;;29.00;72.00;;;;;;7399761;19;19935;-73
2023/08/24 05:12:59;;;;;;;16.42;6.25;;;29.00;72.60;;;;;;7397113;19;19923;-73
2023/08/24 05:15:25;;;;;;;;;;;29.00;73.20;;;;;;7402078;19;19919;-73
2023/08/24 05:17:55;;;;;;;12.20;6.70;;;28.90;73.50;;;;;;7400644;19;19934;-72
2023/08/24 05:20:22;;;;;;;10.25;8.75;;;28.90;73.70;;;;;;7396932;19;19978;-73
2023/08/24 05:22:48;;;;;;;10.25;6.03;;;28.90;74.60;;;;;;7400158;19;20332;-72
2023/08/24 05:25:16;;;;;;;11.45;6.68;;;28.90;76.10;;;;;;7397522;19;19914;-72
2023/08/24 05:27:42;;;;;;;12.40;8.82;;;28.90;75.60;;;;;;7400533;19;19925;-73
2023/08/24 05:30:08;;;;;;;14.77;6.80;;;28.80;75.50;;;;;;7397642;19;19945;-73
2023/08/24 05:32:38;;;;;;;;;;;28.80;76.50;;;;;;7401187;19;19932;-73
2023/08/24 05:35:08;;;;;;;14.57;8.68;;;28.90;77.20;;;;;;7397182;19;19929;-72
2023/08/24 05:37:34;;;;;;;10.80;6.72;;;28.90;77.60;;;;;;7401046;19;19935;-72
2023/08/24 05:40:01;;;;;;;11.98;7.18;;;28.90;77.60;;;;;;7397275;19;19935;-72
2023/08/24 05:42:27;;;;;;;14.38;7.25;;;28.90;78.60;;;;;;7396465;19;19926;-72
2023/08/24 05:44:54;;;;;;;12.75;8.32;;;28.90;78.80;;;;;;7396588;19;19922;-72
2023/08/24 05:47:19;;;;;;;15.68;7.13;;;29.00;79.30;;;;;;7395425;19;20349;-72
2023/08/24 05:49:45;;;;;;;13.05;6.90;;;29.00;79.20;;;;;;7405305;19;19914;-73
2023/08/24 05:52:14;;;;;;;13.18;8.75;;;29.00;79.50;;;;;;7401700;19;19919;-73
2023/08/24 05:54:39;;;;;;;11.13;7.95;;;29.10;80.10;;;;;;7405252;19;19930;-73
2023/08/24 05:57:05;;;;;;;13.52;7.95;;;29.10;80.30;;;;;;7400818;19;19914;-73
2023/08/24 05:59:33;;;;;;;11.48;8.60;;;29.10;80.50;;;;;;7403138;19;19922;-73
2023/08/24 06:01:58;;;;;;;14.65;7.60;;;29.20;81.00;;;;;;7405595;19;19938;-72
2023/08/24 06:04:24;;;;;;;11.63;6.75;;;29.20;81.00;;;;;;7401403;19;19914;-72
2023/08/24 06:06:51;;;;;;;14.30;6.93;;;29.30;80.90;;;;;;7405428;19;19949;-73
2023/08/24 06:09:17;;;;;;;15.32;8.50;;;29.30;80.50;;;;;;7401861;19;20335;-72
2023/08/24 06:11:42;;;;;;;11.60;7.28;;;29.40;80.60;;;;;;7404288;19;20401;-73
2023/08/24 06:14:08;;;;;;;13.35;9.02;;;29.40;80.30;;;;;;7402829;19;19919;-73
2023/08/24 06:16:34;;;;;;;13.20;8.05;;;29.50;80.20;;;;;;7406554;19;19919;-73
2023/08/24 06:19:00;;;;;;;18.98;9.05;;;29.50;79.90;;;;;;7370845;19;19927;-72
2023/08/24 06:21:26;;;;;;;13.65;7.38;;;29.50;80.70;;;;;;7402971;19;19922;-73
2023/08/24 06:23:51;;;;;;;14.55;8.25;;;29.50;81.60;;;;;;7400953;19;19929;-72
2023/08/24 06:26:18;;;;;;;18.38;10.07;;;29.50;81.50;;;;;;7399830;19;19982;-73
2023/08/24 06:28:44;;;;;;;14.35;8.70;;;29.40;81.60;;;;;;7403680;19;20319;-73
2023/08/24 06:31:09;;;;;;;14.02;8.75;;;29.50;81.30;;;;;;7380215;19;19924;-72
2023/08/24 06:33:36;;;;;;;17.25;9.88;;;29.60;81.00;;;;;;7401903;19;19930;-73
2023/08/24 06:36:05;;;;;;;12.52;7.55;;;29.70;80.40;;;;;;7403615;19;20037;-74
2023/08/24 06:38:31;;;;;;;17.60;8.50;;;29.80;79.70;;;;;;7404221;19;19925;-72
2023/08/24 06:41:00;;;;;;;14.93;7.25;;;29.90;79.10;;;;;;7404537;19;19919;-71
2023/08/24 06:43:28;;;;;;;11.23;8.35;;;29.90;78.70;;;;;;7399828;19;20323;-72
2023/08/24 06:45:57;;;;;;;15.05;7.60;;;29.90;78.50;;;;;;7403454;19;19944;-72
2023/08/24 06:48:23;;;;;;;14.70;8.63;;;30.00;78.10;;;;;;7401226;19;20331;-71
2023/08/24 06:50:49;;;;;;;13.85;8.50;;;30.00;77.70;;;;;;7401386;19;19928;-73
2023/08/24 06:53:15;;;;;;;13.98;7.72;;;30.10;77.70;;;;;;7400256;19;19922;-72
2023/08/24 06:55:41;;;;;;;14.55;8.85;;;30.20;77.80;;;;;;7405436;19;19915;-72
2023/08/24 06:58:06;;;;;;;;;;;30.20;79.60;;;;;;7404141;19;19919;-72
2023/08/24 07:00:35;;;;;;;17.08;9.57;;;30.20;79.80;;;;;;7400633;19;19945;-73
2023/08/24 07:03:01;;;;;;;15.93;9.57;;;30.30;80.10;;;;;;7402628;19;19911;-73
2023/08/24 07:05:28;;;;;;;14.68;9.07;;;30.30;80.30;;;;;;7399992;19;19978;-73
2023/08/24 07:07:57;;;;;;;14.52;8.30;;;30.40;80.60;;;;;;7403641;19;19922;-72
2023/08/24 07:10:23;;;;;;;13.50;10.95;;;30.50;81.10;;;;;;7400994;19;20560;-72
2023/08/24 07:12:49;;;;;;;15.65;9.32;;;30.50;80.40;;;;;;7402104;19;19990;-72
2023/08/24 07:15:15;;;;;;;15.45;9.23;;;30.40;80.30;;;;;;7401945;19;20275;-72
2023/08/24 07:17:41;;;;;;;14.90;9.45;;;30.40;80.50;;;;;;7403704;19;19926;-73
2023/08/24 07:20:08;;;;;;;21.10;10.68;;;30.30;80.40;;;;;;7403477;19;20014;-72
2023/08/24 07:22:34;;;;;;;14.82;10.00;;;30.30;80.40;;;;;;7400094;19;19922;-72
2023/08/24 07:25:00;;;;;;;;;;;30.40;79.60;;;;;;7405275;19;19926;-72
2023/08/24 07:27:28;;;;;;;20.25;10.18;;;30.60;78.30;;;;;;7401261;19;20330;-72
2023/08/24 07:29:54;;;;;;;16.13;10.02;;;30.60;77.20;;;;;;7394928;19;19907;-72
2023/08/24 07:32:20;;;;;;;13.18;10.18;;;30.60;76.40;;;;;;7402067;19;19982;-73
2023/08/24 07:34:45;;;;;;;18.02;9.73;;;30.60;76.70;;;;;;7401678;19;19933;-73
2023/08/24 07:37:11;;;;;;;15.88;8.93;;;30.70;76.10;;;;;;7401211;19;19915;-73
2023/08/24 07:39:38;;;;;;;15.95;9.27;;;30.70;74.50;;;;;;7401141;19;19925;-73
2023/08/24 07:42:04;;;;;;;15.93;9.77;;;30.70;73.60;;;;;;7400243;19;19918;-73
2023/08/24 07:44:30;;;;;;;16.10;9.85;;;30.80;73.60;;;;;;7397458;19;20594;-72
2023/08/24 07:46:56;;;;;;;13.00;9.85;;;30.90;72.30;;;;;;7403743;19;19914;-73
2023/08/24 07:49:22;;;;;;;16.55;9.38;;;31.00;71.40;;;;;;7398887;19;19930;-72
2023/08/24 07:51:47;;;;;;;17.98;9.20;;;31.00;71.00;;;;;;7403848;19;19926;-72
2023/08/24 07:54:14;;;;;;;17.67;9.90;;;31.10;70.70;;;;;;7399901;19;19911;-72
2023/08/24 07:56:40;;;;;;;18.95;9.63;;;31.10;70.10;;;;;;7403210;19;20343;-72
2023/08/24 07:59:06;;;;;;;13.43;9.75;;;31.20;69.60;;;;;;7400406;19;19930;-72
2023/08/24 08:01:32;;;;;;;14.68;9.18;;;31.30;68.50;;;;;;7394733;19;19974;-73
2023/08/24 08:03:58;;;;;;;;;;;31.50;67.60;;;;;;7396268;19;19932;-72
2023/08/24 08:06:26;;;;;;;13.13;9.20;;;31.50;67.10;;;;;;7385307;19;19922;-73
2023/08/24 08:08:52;;;;;;;13.40;9.95;;;31.60;68.30;;;;;;7389905;19;19919;-73
2023/08/24 08:11:18;;;;;;;;;;;31.50;68.50;;;;;;7398790;19;19950;-72
2023/08/24 08:13:44;;;;;;;15.35;9.75;;;31.60;68.50;;;;;;7398327;19;19933;-73
2023/08/24 08:16:10;;;;;;;12.45;9.70;;;31.70;68.10;;;;;;7396107;19;19922;-73
2023/08/24 08:18:37;;;;;;;13.88;9.02;;;31.70;67.00;;;;;;7389235;19;20570;-75
2023/08/24 08:21:20;;;;;;;14.13;8.85;;;31.90;66.00;;;;;;7392950;19;19915;-74
2023/08/24 08:23:46;;;;;;;13.48;9.98;;;32.00;66.30;;;;;;7385780;19;19911;-74
2023/08/24 08:26:13;;;;;;;;;;;32.10;65.50;;;;;;7402647;19;19949;-74
2023/08/24 08:28:39;;;;;;;12.07;9.25;;;32.20;65.00;;;;;;7396742;19;19923;-73
2023/08/24 08:31:05;;;;;;;13.13;9.80;;;32.30;64.30;;;;;;7390678;19;20342;-73
2023/08/24 08:33:32;;;;;;;12.63;8.48;;;32.50;63.40;;;;;;7401945;19;20255;-73
2023/08/24 08:35:58;;;;;;;13.65;9.15;;;32.70;62.70;;;;;;7399314;19;19919;-74
2023/08/24 08:38:27;;;;;;;15.75;8.60;;;32.80;62.30;;;;;;7400664;19;20258;-73
2023/08/24 08:41:02;;;;;;;18.10;11.63;;;32.90;61.60;;;;;;7394845;19;19915;-73
2023/08/24 08:43:28;;;;;;;17.88;10.52;;;33.00;62.20;;;;;;7396615;19;19914;-73
2023/08/24 08:45:55;;;;;;;15.75;10.27;;;33.00;64.30;;;;;;7395898;19;20372;-73
2023/08/24 08:48:22;;;;;;;19.63;8.90;;;33.00;65.70;;;;;;7391012;19;20456;-73
2023/08/24 08:50:56;;;;;;;14.98;9.90;;;33.00;65.80;;;;;;7389733;19;19954;-74
2023/08/24 08:53:23;;;;;;;20.83;10.80;;;33.00;66.90;;;;;;7394593;19;19914;-74
2023/08/24 08:55:53;;;;;;;20.10;10.82;;;33.10;67.10;;;;;;7399740;19;19926;-73
2023/08/24 08:58:20;;;;;;;15.77;10.27;;;33.30;66.60;;;;;;7359863;19;19923;-72
2023/08/24 09:00:47;;;;;;;15.70;10.70;;;33.40;66.70;;;;;;7392446;19;19932;-72
2023/08/24 09:03:17;;;;;;;21.58;9.85;;;33.30;67.20;;;;;;7397990;19;20544;-73
2023/08/24 09:05:47;;;;;;;17.95;11.80;;;33.20;67.90;;;;;;7395233;19;19930;-73
2023/08/24 09:08:15;;;;;;;19.90;10.80;;;33.40;67.20;;;;;;7396808;19;19929;-73
2023/08/24 09:10:41;;;;;;;15.95;12.35;;;33.60;66.80;;;;;;7391828;19;19947;-73
2023/08/24 09:13:07;;;;;;;;;;;33.70;69.10;;;;;;7400957;19;20338;-74
2023/08/24 09:15:36;;;;;;;19.75;12.20;;;33.60;70.20;;;;;;7389795;19;19929;-73
2023/08/24 09:18:03;;;;;;;19.33;11.93;;;33.40;71.80;;;;;;7399572;19;19998;-73
2023/08/24 09:20:30;;;;;;;16.23;11.32;;;33.30;72.80;;;;;;7394847;19;20259;-73
2023/08/24 09:22:57;;;;;;;22.15;11.10;;;33.40;73.60;;;;;;7394432;19;19914;-73
2023/08/24 09:25:23;;;;;;;13.35;9.52;;;33.60;73.50;;;;;;7393870;19;19941;-72
2023/08/24 09:28:08;;;;;;;18.13;10.70;;;33.80;73.10;;;;;;7400347;19;19978;-73
2023/08/24 09:30:38;;;;;;;16.10;12.45;;;34.00;71.90;;;;;;7391425;19;19944;-74
2023/08/24 09:33:10;;;;;;;19.27;13.38;;;33.80;72.30;;;;;;7389756;19;20327;-73
2023/08/24 09:35:36;;;;;;;18.65;12.02;;;33.30;73.80;;;;;;7394052;19;19950;-74
2023/08/24 09:38:18;;;;;;;19.10;13.35;;;33.20;75.10;;;;;;7397212;19;19921;-73
2023/08/24 09:40:50;;;;;;;19.65;13.25;;;32.90;75.20;;;;;;7393095;19;19923;-73
2023/08/24 09:43:16;;;;;;;21.63;13.60;;;32.80;75.90;;;;;;7390041;19;19934;-73
2023/08/24 09:45:55;;;;;;;;;;;32.80;77.20;;;;;;7392939;19;20344;-72
2023/08/24 09:48:22;;;;;;;22.20;14.30;;;33.00;76.80;;;;;;7400576;19;19922;-74
2023/08/24 09:50:50;;;;;;;20.27;12.27;;;32.80;77.00;;;;;;7399464;19;19938;-73
2023/08/24 09:53:18;;;;;;;18.73;13.15;;;33.10;76.20;;;;;;7389295;19;19918;-74
2023/08/24 09:56:09;;;;;;;21.17;12.35;;;33.30;75.00;;;;;;7394164;19;19945;-74
2023/08/24 09:58:36;;;;;;;17.38;11.52;;;33.30;75.20;;;;;;7396343;19;19918;-73
2023/08/24 10:01:03;;;;;;;19.70;12.05;;;33.30;75.70;;;;;;7370133;19;19925;-73
2023/08/24 10:03:32;;;;;;;23.10;14.30;;;33.40;75.00;;;;;;7391871;19;19918;-73
2023/08/24 10:06:00;;;;;;;18.85;12.73;;;33.40;74.90;;;;;;7397371;19;19919;-73
2023/08/24 10:08:33;;;;;;;20.02;12.70;;;33.30;75.50;;;;;;7396847;19;19925;-73
2023/08/24 10:10:59;;;;;;;22.15;13.45;;;33.30;76.30;;;;;;7395117;19;19926;-74
2023/08/24 10:13:28;;;;;;;;;;;33.20;77.00;;;;;;7400043;19;20383;-73
2023/08/24 10:15:55;;;;;;;24.98;12.43;;;33.60;76.40;;;;;;7386649;19;19914;-74
2023/08/24 10:18:23;;;;;;;20.20;12.35;;;33.70;76.10;;;;;;7391504;19;20331;-73
2023/08/24 10:20:51;;;;;;;18.33;9.85;;;33.80;76.30;;;;;;7383230;19;20199;-73
2023/08/24 10:23:18;;;;;;;16.48;10.10;;;34.10;76.20;;;;;;7395701;19;19914;-73
2023/08/24 10:25:46;;;;;;;18.30;11.05;;;34.30;75.30;;;;;;7392868;19;19910;-75
2023/08/24 10:28:14;;;;;;;19.23;12.57;;;34.30;76.00;;;;;;7392431;19;19915;-74
2023/08/24 10:30:43;;;;;;;14.98;10.63;;;34.00;77.70;;;;;;7386632;19;19922;-73
2023/08/24 10:33:11;;;;;;;18.50;11.90;;;34.10;78.00;;;;;;7385736;19;19918;-75
2023/08/24 10:35:38;;;;;;;15.88;11.85;;;33.80;76.20;;;;;;7401346;19;19918;-72
2023/08/24 10:38:05;;;;;;;17.23;11.77;;;33.60;77.20;;;;;;7402682;19;19926;-73
2023/08/24 10:40:38;;;;;;;17.25;11.63;;;33.50;77.00;;;;;;7403701;19;19932;-72
2023/08/24 10:43:07;;;;;;;15.55;10.90;;;33.30;77.50;;;;;;7396360;19;19915;-73
2023/08/24 10:45:56;;;;;;;16.83;11.35;;;33.60;77.30;;;;;;7402355;19;19997;-73
2023/08/24 10:48:30;;;;;;;18.02;10.75;;;33.60;76.50;;;;;;7402000;19;19934;-72
2023/08/24 10:51:14;;;;;;;17.63;10.45;;;33.90;73.70;;;;;;7405007;19;19922;-73
2023/08/24 10:53:41;;;;;;;18.48;11.02;;;34.20;72.60;;;;;;7401448;19;20504;-73
2023/08/24 10:56:14;;;;;;;16.23;10.95;;;34.30;69.60;;;;;;7403627;19;19910;-73
2023/08/24 10:58:42;;;;;;;13.45;10.68;;;34.30;67.30;;;;;;7400111;19;19930;-73
2023/08/24 11:01:16;;;;;;;15.00;9.25;;;34.30;66.50;;;;;;7396221;19;19918;-73
2023/08/24 11:03:46;;;;;;;12.63;9.18;;;34.50;64.50;;;;;;7399677;19;19922;-73
2023/08/24 11:06:23;;;;;;;12.27;9.25;;;34.40;64.00;;;;;;7393763;19;19922;-73
2023/08/24 11:08:49;;;;;;;11.35;7.90;;;34.30;63.00;;;;;;7400286;19;19919;-73
2023/08/24 11:11:23;;;;;;;13.02;7.97;;;34.80;61.10;;;;;;7368309;19;19919;-72
2023/08/24 11:14:17;;;;;;;12.70;8.88;;;35.20;59.30;;;;;;7398459;19;19910;-74
2023/08/24 11:16:44;;;;;;;13.40;7.38;;;34.90;58.00;;;;;;7390250;19;19915;-73
2023/08/24 11:19:12;;;;;;;11.27;7.68;;;35.20;57.80;;;;;;7397255;19;19934;-73
2023/08/24 11:21:39;;;;;;;16.70;8.40;;;35.20;58.00;;;;;;7400434;19;19922;-72
2023/08/24 11:24:06;;;;;;;10.77;6.85;;;35.10;57.30;;;;;;7400697;19;19915;-72
2023/08/24 11:26:32;;;;;;;11.23;6.20;;;35.00;56.00;;;;;;7376454;19;19925;-73
2023/08/24 11:28:58;;;;;;;14.60;8.25;;;35.00;54.80;;;;;;7400494;19;19919;-73
2023/08/24 11:31:27;;;;;;;13.98;6.97;;;35.50;56.30;;;;;;7397780;19;19927;-72
2023/08/24 11:33:56;;;;;;;9.05;6.35;;;35.90;54.50;;;;;;7398113;19;21221;-72
2023/08/24 11:36:23;;;;;;;14.93;7.47;;;35.60;53.60;;;;;;7398143;19;20368;-73
2023/08/24 11:38:53;;;;;;;10.77;6.80;;;35.40;55.20;;;;;;7399560;19;20431;-73
2023/08/24 11:41:21;;;;;;;8.75;6.55;;;36.10;55.00;;;;;;7398748;19;19927;-73
2023/08/24 11:43:50;;;;;;;12.63;7.93;;;36.20;52.90;;;;;;7398002;19;19921;-72
2023/08/24 11:46:17;;;;;;;11.63;6.82;;;36.20;54.90;;;;;;7394606;19;19907;-72
2023/08/24 11:48:44;;;;;;;9.63;6.93;;;36.30;56.70;;;;;;7397921;19;19919;-73
2023/08/24 11:51:12;;;;;;;10.27;7.55;;;36.00;55.10;;;;;;7397237;19;19918;-72
2023/08/24 11:53:42;;;;;;;9.02;6.97;;;35.20;54.50;;;;;;7393424;19;20032;-73
2023/08/24 11:56:10;;;;;;;8.13;6.40;;;35.30;54.00;;;;;;7390035;19;19926;-73
2023/08/24 11:58:47;;;;;;;13.95;6.50;;;36.00;53.50;;;;;;7392042;19;19923;-72
2023/08/24 12:01:13;;;;;;;11.48;6.32;;;35.70;52.00;;;;;;7387790;19;20331;-73
2023/08/24 12:03:40;;;;;;;7.97;5.90;;;36.00;49.30;;;;;;7402419;19;19929;-73
2023/08/24 12:06:16;;;;;;;10.32;5.72;;;35.90;49.60;;;;;;7398695;19;20011;-73
2023/08/24 12:08:45;;;;;;;12.07;7.32;;;36.70;47.70;;;;;;7404064;19;19922;-73
2023/08/24 12:11:25;;;;;;;11.18;6.47;;;36.50;46.40;;;;;;7398839;19;19922;-72
2023/08/24 12:13:52;;;;;;;11.98;6.18;;;36.60;48.70;;;;;;7401190;19;19935;-73
2023/08/24 12:16:20;;;;;;;8.32;7.00;;;36.90;47.10;;;;;;7399918;19;19993;-74
2023/08/24 12:18:53;;;;;;;9.23;6.93;;;36.00;48.90;;;;;;7400761;19;19915;-71
2023/08/24 12:21:20;;;;;;;13.55;7.85;;;36.20;50.20;;;;;;7398100;19;20376;-72
2023/08/24 12:24:06;;;;;;;8.23;5.80;;;36.40;49.40;;;;;;7403094;19;19942;-73
2023/08/24 12:26:33;;;;;;;7.38;6.07;;;36.80;45.80;;;;;;7398227;19;19919;-72
2023/08/24 12:29:06;;;;;;;8.77;6.88;;;37.20;45.10;;;;;;7399923;19;19934;-73
2023/08/24 12:31:33;;;;;;;8.45;6.93;;;36.80;45.40;;;;;;7368875;19;19942;-72
2023/08/24 12:34:08;;;;;;;9.90;5.85;;;36.50;45.00;;;;;;7401327;19;19910;-72
2023/08/24 12:36:36;;;;;;;7.10;6.40;;;36.10;41.80;;;;;;7398123;19;19918;-73
2023/08/24 12:39:04;;;;;;;7.78;5.90;;;36.30;43.90;;;;;;7399377;19;20394;-71
2023/08/24 12:41:30;;;;;;;9.68;7.07;;;36.50;45.00;;;;;;7399734;19;19935;-73
2023/08/24 12:43:56;;;;;;;9.07;6.45;;;36.60;45.60;;;;;;7398848;19;19922;-73